Time;durP1;ratioP1;P1;durP2;ratioP2;P2;SDS_P1;SDS_P2;PMS_P1;PMS_P2;Temp;Humidity;BMP_temperature;BMP_pressure;BME280_temperature;BME280_humidity;BME280_pressure;Samples;Min_cycle;Max_cycle;Signal;HPM_P1;HPM_P2
2021/06/02 00:03:57;;;;;;;1.87;1.77;;;18.30;37.10;;;;;;5087900;28;20427;-78
2021/06/02 00:06:27;;;;;;;2.47;2.17;;;18.20;36.40;;;;;;5088999;28;20972;-77
2021/06/02 00:09:14;;;;;;;3.07;2.07;;;18.20;36.90;;;;;;5087473;28;20462;-79
2021/06/02 00:11:41;;;;;;;1.80;1.50;;;18.10;38.50;;;;;;5090947;28;20485;-78
2021/06/02 00:14:11;;;;;;;2.00;1.90;;;18.10;37.90;;;;;;5089911;28;20567;-77
2021/06/02 00:16:39;;;;;;;2.50;2.00;;;18.00;37.70;;;;;;5092223;28;20452;-77
2021/06/02 00:19:09;;;;;;;8.20;3.40;;;18.00;37.30;;;;;;5089566;28;20870;-77
2021/06/02 00:21:37;;;;;;;1.70;1.60;;;17.90;38.50;;;;;;5089323;28;20468;-77
2021/06/02 00:24:06;;;;;;;2.33;2.07;;;17.90;39.50;;;;;;5089494;28;20455;-79
2021/06/02 00:26:36;;;;;;;2.57;2.23;;;17.90;39.10;;;;;;5087989;28;20459;-78
2021/06/02 00:29:06;;;;;;;5.67;2.73;;;17.80;39.70;;;;;;5088701;28;21054;-77
2021/06/02 00:31:37;;;;;;;2.20;2.10;;;17.80;39.90;;;;;;5087975;28;20977;-77
2021/06/02 00:34:06;;;;;;;2.27;2.07;;;17.70;40.00;;;;;;5088853;28;20529;-79
2021/06/02 00:36:33;;;;;;;2.27;1.90;;;17.70;40.50;;;;;;5090801;28;20452;-79
2021/06/02 00:39:02;;;;;;;2.77;2.27;;;17.70;40.80;;;;;;5088625;28;20521;-78
2021/06/02 00:41:30;;;;;;;2.17;1.70;;;17.70;42.20;;;;;;5091692;28;20464;-79
2021/06/02 00:43:59;;;;;;;8.20;2.60;;;17.70;43.60;;;;;;5089054;28;20525;-76
2021/06/02 00:46:27;;;;;;;2.63;2.43;;;17.60;42.10;;;;;;5090775;28;20492;-76
2021/06/02 00:48:55;;;;;;;2.23;2.03;;;17.60;42.60;;;;;;5089374;28;20456;-76
2021/06/02 00:51:23;;;;;;;2.50;2.30;;;17.60;44.30;;;;;;5091435;28;20459;-76
2021/06/02 00:53:53;;;;;;;2.70;2.20;;;17.50;43.10;;;;;;5090802;28;21122;-79
2021/06/02 00:56:29;;;;;;;3.37;3.07;;;17.50;44.10;;;;;;5086405;28;20452;-80
2021/06/02 00:59:01;;;;;;;2.33;2.13;;;17.40;43.10;;;;;;5090733;28;20465;-78
2021/06/02 01:01:33;;;;;;;2.80;2.50;;;17.40;44.40;;;;;;5090896;28;20450;-78
2021/06/02 01:04:01;;;;;;;2.30;2.10;;;17.30;43.10;;;;;;5090772;28;20450;-77
2021/06/02 01:06:33;;;;;;;2.03;1.83;;;17.30;43.20;;;;;;5091979;28;20446;-77
2021/06/02 01:09:04;;;;;;;2.80;2.00;;;17.20;43.20;;;;;;5086388;28;20854;-78
2021/06/02 01:11:33;;;;;;;3.60;2.30;;;17.20;44.20;;;;;;5083477;28;20468;-78
2021/06/02 01:14:04;;;;;;;2.23;2.13;;;17.20;44.10;;;;;;5084102;28;20487;-77
2021/06/02 01:16:35;;;;;;;2.20;2.10;;;17.20;44.90;;;;;;5089465;28;20509;-77
2021/06/02 01:19:03;;;;;;;8.43;2.13;;;17.10;44.80;;;;;;5088572;28;20454;-77
2021/06/02 01:21:32;;;;;;;2.73;2.53;;;17.10;45.30;;;;;;5089535;28;20462;-76
2021/06/02 01:24:01;;;;;;;2.83;2.63;;;17.10;45.60;;;;;;5090345;28;20459;-76
2021/06/02 01:26:30;;;;;;;3.73;2.33;;;17.00;45.50;;;;;;5086884;28;20466;-77
2021/06/02 01:28:58;;;;;;;2.37;2.17;;;17.00;46.30;;;;;;5088271;28;21023;-77
2021/06/02 01:31:58;;;;;;;2.73;2.53;;;17.00;47.00;;;;;;5088576;28;20470;-78
2021/06/02 01:34:59;;;;;;;2.13;2.03;;;16.90;46.70;;;;;;5088751;28;20485;-79
2021/06/02 01:37:48;;;;;;;3.70;2.70;;;17.00;47.70;;;;;;5084248;28;20446;-77
2021/06/02 01:40:34;;;;;;;2.60;2.40;;;16.90;47.10;;;;;;5089418;28;20450;-78
2021/06/02 01:43:21;;;;;;;2.83;2.50;;;16.90;46.70;;;;;;5089181;28;20453;-78
2021/06/02 01:46:22;;;;;;;3.57;2.50;;;16.90;47.90;;;;;;5087699;28;20470;-76
2021/06/02 01:49:04;;;;;;;2.77;2.17;;;16.90;48.10;;;;;;5076811;28;20502;-78
2021/06/02 01:52:28;;;;;;;2.57;2.37;;;16.80;48.70;;;;;;5087409;28;20486;-78
2021/06/02 01:55:26;;;;;;;2.93;2.70;;;16.80;47.90;;;;;;5054027;28;20482;-79
2021/06/02 01:58:41;;;;;;;2.40;2.20;;;16.70;48.30;;;;;;5062858;28;20523;-76
2021/06/02 02:01:46;;;;;;;2.80;2.60;;;16.60;48.00;;;;;;5083462;28;20805;-77
2021/06/02 02:04:39;;;;;;;2.50;2.30;;;16.60;48.70;;;;;;5069071;28;21128;-77
2021/06/02 02:07:33;;;;;;;2.83;2.63;;;16.60;49.70;;;;;;5083838;28;20463;-77
2021/06/02 02:10:32;;;;;;;2.90;2.70;;;16.50;48.80;;;;;;5088522;28;20450;-78
2021/06/02 02:13:08;;;;;;;2.93;2.73;;;16.50;49.90;;;;;;5089303;28;20446;-76
2021/06/02 02:15:51;;;;;;;2.50;2.30;;;16.50;50.50;;;;;;5089248;28;20829;-77
2021/06/02 02:18:36;;;;;;;2.53;2.33;;;16.50;51.20;;;;;;5088189;28;20447;-77
2021/06/02 02:21:09;;;;;;;4.63;2.27;;;16.40;51.00;;;;;;5092173;28;20533;-76
2021/06/02 02:23:38;;;;;;;2.67;2.47;;;16.40;51.40;;;;;;5093374;28;20656;-78
2021/06/02 02:26:24;;;;;;;2.80;2.50;;;16.40;52.10;;;;;;5087951;28;20503;-75
2021/06/02 02:28:56;;;;;;;3.00;2.80;;;16.30;51.60;;;;;;5091541;28;20458;-77
2021/06/02 02:31:47;;;;;;;2.43;2.23;;;16.30;52.20;;;;;;5090866;28;21038;-77
2021/06/02 02:34:34;;;;;;;2.77;2.57;;;16.20;51.80;;;;;;5092059;28;20473;-76
2021/06/02 02:37:06;;;;;;;2.40;2.20;;;16.30;52.30;;;;;;5079608;28;20458;-77
2021/06/02 02:39:41;;;;;;;2.77;2.40;;;16.20;52.60;;;;;;5087155;28;20438;-78
2021/06/02 02:42:19;;;;;;;3.47;3.17;;;16.20;52.00;;;;;;5088596;28;20512;-77
2021/06/02 02:45:02;;;;;;;2.83;2.57;;;16.20;53.20;;;;;;5086791;28;20468;-76
2021/06/02 02:47:34;;;;;;;2.23;2.13;;;16.10;52.90;;;;;;5088491;28;21034;-76
2021/06/02 02:50:13;;;;;;;2.83;2.53;;;16.10;53.90;;;;;;5082228;28;20467;-77
2021/06/02 02:52:57;;;;;;;2.90;2.33;;;16.10;53.60;;;;;;5090600;28;20511;-78
2021/06/02 02:55:29;;;;;;;2.70;2.50;;;16.00;54.70;;;;;;5088159;28;20988;-78
2021/06/02 02:58:02;;;;;;;3.00;2.30;;;16.00;54.60;;;;;;5084964;28;20455;-77
2021/06/02 03:00:37;;;;;;;3.13;2.83;;;16.00;55.30;;;;;;5087429;28;20482;-76
2021/06/02 03:03:13;;;;;;;2.97;2.77;;;16.00;54.50;;;;;;5090237;28;20483;-77
2021/06/02 03:05:52;;;;;;;3.60;3.07;;;15.90;55.10;;;;;;5088742;28;20541;-81
2021/06/02 03:08:27;;;;;;;2.77;2.53;;;15.90;54.30;;;;;;5087368;28;20459;-75
2021/06/02 03:11:04;;;;;;;4.93;2.43;;;15.90;55.40;;;;;;5076879;28;21260;-76
2021/06/02 03:13:39;;;;;;;2.70;2.50;;;15.90;55.50;;;;;;5092542;28;20484;-78
2021/06/02 03:16:12;;;;;;;2.73;2.53;;;15.90;55.60;;;;;;5091598;28;20489;-75
2021/06/02 03:18:56;;;;;;;2.80;2.60;;;15.90;56.80;;;;;;5090875;28;20452;-78
2021/06/02 03:21:43;;;;;;;2.10;2.00;;;15.90;55.30;;;;;;5092893;28;20465;-77
2021/06/02 03:24:18;;;;;;;38.90;17.60;;;15.80;55.10;;;;;;5089902;28;20481;-77
2021/06/02 03:26:54;;;;;;;43.40;17.40;;;15.80;55.60;;;;;;5086899;28;20469;-78
2021/06/02 03:29:37;;;;;;;21.10;10.57;;;15.70;55.60;;;;;;5090708;28;20447;-79
2021/06/02 03:32:10;;;;;;;31.83;13.37;;;15.70;55.40;;;;;;5091000;28;20512;-76
2021/06/02 03:34:52;;;;;;;15.97;6.80;;;15.60;55.40;;;;;;5075731;28;20570;-76
2021/06/02 03:37:47;;;;;;;8.60;4.20;;;15.60;55.20;;;;;;5088054;28;21155;-76
2021/06/02 03:40:25;;;;;;;4.20;3.77;;;15.50;55.70;;;;;;5087266;28;20520;-78
2021/06/02 03:42:57;;;;;;;2.53;2.33;;;15.50;56.30;;;;;;5090720;28;21384;-76
2021/06/02 03:45:35;;;;;;;3.00;2.37;;;15.60;56.30;;;;;;5088873;28;20539;-77
2021/06/02 03:48:19;;;;;;;3.20;2.87;;;15.50;56.50;;;;;;5089097;28;20863;-79
2021/06/02 03:51:02;;;;;;;4.20;2.50;;;15.50;57.40;;;;;;5092346;28;20445;-76
2021/06/02 03:53:42;;;;;;;6.03;3.57;;;15.50;57.50;;;;;;5089778;28;20445;-77
2021/06/02 03:56:24;;;;;;;3.00;2.73;;;15.50;59.10;;;;;;5091805;28;21074;-76
2021/06/02 03:59:02;;;;;;;3.20;2.40;;;15.50;79.40;;;;;;5073265;28;20453;-76
2021/06/02 04:01:38;;;;;;;3.80;3.27;;;15.50;59.70;;;;;;5091000;28;20459;-76
2021/06/02 04:04:12;;;;;;;2.70;2.50;;;15.40;62.60;;;;;;5092628;28;20519;-75
2021/06/02 04:06:50;;;;;;;2.07;1.87;;;15.40;59.90;;;;;;5092780;28;20460;-76
2021/06/02 04:09:24;;;;;;;2.53;2.33;;;15.40;59.80;;;;;;5090647;28;20454;-76
2021/06/02 04:12:02;;;;;;;4.70;2.47;;;15.40;59.90;;;;;;5091819;28;20464;-76
2021/06/02 04:14:32;;;;;;;2.40;2.20;;;15.40;60.10;;;;;;5092915;28;20474;-78
2021/06/02 04:17:01;;;;;;;3.60;1.80;;;15.40;62.10;;;;;;5125765;27;20518;-78
2021/06/02 04:19:30;;;;;;;2.47;2.27;;;15.40;62.10;;;;;;5092539;28;20446;-77
2021/06/02 04:22:05;;;;;;;2.37;2.17;;;15.30;63.00;;;;;;5091060;28;20897;-78
2021/06/02 04:24:34;;;;;;;2.43;2.23;;;15.30;64.10;;;;;;5090983;28;20529;-78
2021/06/02 04:27:04;;;;;;;3.20;2.80;;;15.30;63.20;;;;;;5090614;28;20482;-79
2021/06/02 04:29:32;;;;;;;2.67;2.30;;;15.30;64.50;;;;;;5093778;28;20539;-78
2021/06/02 04:32:04;;;;;;;2.83;2.63;;;15.40;63.90;;;;;;5089396;28;20934;-76
2021/06/02 04:34:32;;;;;;;3.10;2.80;;;15.50;64.90;;;;;;5076142;28;20548;-76
2021/06/02 04:37:04;;;;;;;10.53;7.23;;;15.50;65.10;;;;;;5088570;28;20451;-75
2021/06/02 04:39:33;;;;;;;4.87;3.70;;;15.50;65.80;;;;;;5087231;28;20440;-76
2021/06/02 04:42:04;;;;;;;7.30;4.90;;;15.50;68.00;;;;;;5086737;28;21011;-80
2021/06/02 04:44:34;;;;;;;3.73;3.43;;;15.50;68.40;;;;;;5089305;28;20467;-74
2021/06/02 04:47:03;;;;;;;3.90;3.50;;;15.50;69.10;;;;;;5089000;28;20537;-79
2021/06/02 04:49:46;;;;;;;4.90;3.20;;;15.60;70.90;;;;;;5082012;28;20456;-75
2021/06/02 04:53:01;;;;;;;7.07;3.60;;;15.70;70.20;;;;;;5068965;28;20456;-76
2021/06/02 04:55:56;;;;;;;5.63;3.67;;;15.70;71.70;;;;;;5087915;28;20480;-79
2021/06/02 04:58:56;;;;;;;3.50;3.20;;;15.70;72.10;;;;;;5085796;28;20461;-77
2021/06/02 05:02:07;;;;;;;3.60;3.00;;;15.80;73.00;;;;;;5076548;28;20443;-76
2021/06/02 05:05:15;;;;;;;4.47;4.07;;;15.70;75.30;;;;;;5090121;28;20432;-75
2021/06/02 05:08:30;;;;;;;3.63;3.33;;;15.80;76.40;;;;;;5090969;28;20238;-77
2021/06/02 05:11:30;;;;;;;5.50;5.10;;;15.90;77.50;;;;;;5087923;28;20454;-76
2021/06/02 05:14:33;;;;;;;4.73;3.13;;;16.00;76.10;;;;;;5068914;28;20478;-77
2021/06/02 05:17:32;;;;;;;5.40;3.20;;;16.10;75.50;;;;;;5093654;28;20472;-77
2021/06/02 05:20:51;;;;;;;3.10;2.87;;;16.20;77.50;;;;;;5093019;28;20449;-79
2021/06/02 05:24:05;;;;;;;3.97;3.50;;;16.20;74.60;;;;;;5091174;28;20949;-77
2021/06/02 05:27:09;;;;;;;3.90;3.60;;;16.20;79.70;;;;;;5085421;28;20847;-76
2021/06/02 05:30:18;;;;;;;4.13;3.40;;;16.30;84.10;;;;;;5090980;28;20439;-79
2021/06/02 05:33:38;;;;;;;7.33;3.40;;;16.30;86.70;;;;;;5074903;28;20443;-75
2021/06/02 05:36:48;;;;;;;3.60;2.77;;;16.40;87.90;;;;;;5085248;28;20538;-77
2021/06/02 05:39:49;;;;;;;4.90;3.30;;;16.50;87.60;;;;;;5090982;28;20446;-77
2021/06/02 05:42:24;;;;;;;4.20;3.80;;;16.50;85.70;;;;;;5103320;28;20442;-77
2021/06/02 05:45:28;;;;;;;3.73;3.47;;;16.50;85.80;;;;;;5078040;28;20215;-76
2021/06/02 05:48:33;;;;;;;4.23;3.70;;;16.60;86.40;;;;;;5084917;28;20463;-76
2021/06/02 05:51:32;;;;;;;6.00;4.10;;;16.70;89.30;;;;;;5088042;28;20447;-79
2021/06/02 05:54:45;;;;;;;4.50;4.10;;;16.70;91.60;;;;;;5084261;28;20577;-77
2021/06/02 05:57:50;;;;;;;3.43;3.13;;;16.80;93.90;;;;;;5089991;28;20558;-77
2021/06/02 06:00:40;;;;;;;8.90;3.30;;;16.90;93.00;;;;;;5032908;28;20542;-76
2021/06/02 06:03:40;;;;;;;5.03;3.78;;;16.90;91.00;;;;;;5091315;28;20459;-80
2021/06/02 06:06:27;;;;;;;2.60;2.20;;;17.10;89.20;;;;;;5091653;28;20443;-76
2021/06/02 06:09:48;;;;;;;4.60;4.30;;;17.20;97.40;;;;;;5083963;28;21092;-76
2021/06/02 06:13:09;;;;;;;1.80;1.70;;;17.30;75.30;;;;;;4984855;28;20471;-76
2021/06/02 06:16:32;;;;;;;2.77;1.63;;;17.40;70.60;;;;;;5002553;28;20484;-81
2021/06/02 06:19:20;;;;;;;2.43;2.23;;;17.40;69.80;;;;;;5080619;28;21036;-76
2021/06/02 06:22:10;;;;;;;1.83;1.60;;;17.40;64.60;;;;;;5091277;28;20493;-77
2021/06/02 06:24:43;;;;;;;1.90;1.80;;;17.40;64.60;;;;;;5090274;28;20530;-77
2021/06/02 06:27:18;;;;;;;3.20;2.50;;;17.50;70.70;;;;;;5092112;28;20873;-78
2021/06/02 06:29:56;;;;;;;3.00;2.20;;;17.60;74.20;;;;;;5088733;28;20468;-78
2021/06/02 06:32:26;;;;;;;1.87;1.50;;;17.60;71.80;;;;;;5091559;28;20460;-78
2021/06/02 06:34:55;;;;;;;1.63;1.53;;;17.70;66.50;;;;;;5090489;28;20472;-78
2021/06/02 06:37:30;;;;;;;2.07;1.40;;;17.80;64.80;;;;;;5092365;28;20471;-78
2021/06/02 06:40:02;;;;;;;2.73;1.60;;;17.80;62.10;;;;;;5083739;28;20453;-77
2021/06/02 06:42:35;;;;;;;3.70;1.33;;;17.90;57.30;;;;;;5087077;28;20456;-76
2021/06/02 06:45:08;;;;;;;3.10;1.63;;;17.90;56.20;;;;;;5089926;28;20473;-82
2021/06/02 06:47:37;;;;;;;1.90;1.80;;;18.00;57.70;;;;;;5117878;27;21464;-77
2021/06/02 06:50:09;;;;;;;2.23;1.77;;;18.10;56.10;;;;;;5082757;28;20445;-78
2021/06/02 06:52:38;;;;;;;2.03;1.73;;;18.30;58.50;;;;;;5083357;28;21033;-76
2021/06/02 06:55:08;;;;;;;2.07;1.30;;;18.40;58.80;;;;;;5087075;28;20476;-75
2021/06/02 06:57:38;;;;;;;1.93;1.57;;;18.60;58.10;;;;;;5119487;27;20485;-76
2021/06/02 07:00:10;;;;;;;1.80;1.23;;;18.80;60.70;;;;;;5088493;28;21065;-79
2021/06/02 07:02:39;;;;;;;1.50;1.40;;;19.00;63.50;;;;;;5083961;28;20485;-79
2021/06/02 07:05:08;;;;;;;1.87;1.40;;;19.20;68.80;;;;;;5087073;28;20565;-74
2021/06/02 07:07:36;;;;;;;2.10;1.30;;;19.40;68.10;;;;;;5089104;28;20829;-74
2021/06/02 07:10:06;;;;;;;2.03;1.47;;;19.60;70.00;;;;;;5088839;28;20470;-76
2021/06/02 07:12:37;;;;;;;1.43;1.30;;;19.70;70.50;;;;;;5090265;28;20516;-75
2021/06/02 07:15:09;;;;;;;1.43;1.10;;;19.60;63.20;;;;;;5085290;28;21333;-77
2021/06/02 07:17:40;;;;;;;2.70;1.30;;;19.60;66.50;;;;;;5082378;28;20583;-78
2021/06/02 07:20:10;;;;;;;1.47;1.33;;;19.70;66.70;;;;;;5081538;28;21016;-76
2021/06/02 07:22:44;;;;;;;1.90;1.50;;;19.80;69.30;;;;;;5089172;28;21070;-78
2021/06/02 07:25:15;;;;;;;1.70;1.20;;;20.00;67.70;;;;;;5101249;28;20533;-78
2021/06/02 07:27:45;;;;;;;1.40;1.30;;;20.10;72.40;;;;;;5097900;28;20476;-80
2021/06/02 07:30:17;;;;;;;1.87;1.40;;;20.10;72.10;;;;;;5101809;28;20528;-77
2021/06/02 07:32:45;;;;;;;4.20;1.53;;;20.10;69.30;;;;;;5102493;28;20464;-78
2021/06/02 07:35:14;;;;;;;1.57;1.47;;;20.10;72.70;;;;;;5098572;28;20615;-78
2021/06/02 07:37:42;;;;;;;1.50;1.40;;;20.20;71.60;;;;;;5098785;28;20473;-79
2021/06/02 07:40:10;;;;;;;1.93;1.40;;;20.20;72.50;;;;;;5095108;28;20450;-79
2021/06/02 07:42:39;;;;;;;1.70;1.60;;;20.20;69.60;;;;;;5092978;28;20458;-79
2021/06/02 07:45:07;;;;;;;2.70;1.63;;;20.20;71.40;;;;;;5106960;28;20480;-78
2021/06/02 07:47:37;;;;;;;1.50;1.40;;;20.20;71.10;;;;;;5094588;28;20450;-78
2021/06/02 07:50:06;;;;;;;1.57;1.40;;;20.30;74.70;;;;;;5092006;28;20459;-79
2021/06/02 07:52:34;;;;;;;2.10;1.47;;;20.30;74.10;;;;;;5094230;28;20479;-79
2021/06/02 07:55:02;;;;;;;1.93;1.77;;;20.30;75.80;;;;;;5100540;28;20478;-80
2021/06/02 07:57:32;;;;;;;1.37;1.27;;;20.30;92.80;;;;;;5095410;28;20880;-79
2021/06/02 08:00:00;;;;;;;1.77;1.53;;;20.40;78.50;;;;;;5102644;28;20485;-81
2021/06/02 08:02:28;;;;;;;1.80;1.70;;;20.40;78.50;;;;;;5099718;28;20446;-80
2021/06/02 08:04:57;;;;;;;1.73;1.63;;;20.40;77.80;;;;;;5091669;28;20477;-77
2021/06/02 08:07:39;;;;;;;1.23;1.10;;;20.40;77.00;;;;;;5089374;28;20474;-78
2021/06/02 08:10:07;;;;;;;2.07;1.97;;;20.40;75.20;;;;;;5084242;28;20466;-76
2021/06/02 08:12:35;;;;;;;1.67;1.47;;;20.50;79.60;;;;;;5079788;28;20505;-74
2021/06/02 08:15:04;;;;;;;3.80;2.00;;;20.50;79.10;;;;;;5083233;28;20563;-76
2021/06/02 08:17:32;;;;;;;1.40;1.30;;;20.60;78.70;;;;;;5085020;28;20473;-76
2021/06/02 08:20:01;;;;;;;1.67;1.30;;;20.60;81.90;;;;;;5085732;28;20462;-76
2021/06/02 08:22:28;;;;;;;3.37;1.40;;;20.60;83.10;;;;;;5084159;28;20461;-76
2021/06/02 08:24:56;;;;;;;1.65;1.55;;;20.60;83.40;;;;;;5085015;28;20968;-77
2021/06/02 08:27:24;;;;;;;1.53;1.33;;;20.60;79.80;;;;;;5085589;28;20187;-75
2021/06/02 08:29:53;;;;;;;1.70;1.53;;;20.70;83.50;;;;;;5082844;28;20488;-78
2021/06/02 08:32:21;;;;;;;2.23;1.60;;;20.80;89.00;;;;;;5085092;28;20510;-78
2021/06/02 08:34:49;;;;;;;2.17;1.60;;;20.90;90.30;;;;;;5088188;28;20554;-78
2021/06/02 08:37:18;;;;;;;1.60;1.50;;;20.90;90.80;;;;;;5083589;28;20479;-76
2021/06/02 08:39:51;;;;;;;2.00;1.80;;;20.90;88.20;;;;;;5078816;28;20441;-75
2021/06/02 08:42:19;;;;;;;1.83;1.37;;;21.00;85.60;;;;;;5084670;28;20483;-74
2021/06/02 08:44:47;;;;;;;1.53;1.43;;;21.10;82.70;;;;;;5086433;28;20471;-75
2021/06/02 08:47:15;;;;;;;1.40;1.30;;;21.10;75.90;;;;;;5082657;28;20532;-78
2021/06/02 08:49:43;;;;;;;1.67;1.57;;;21.10;74.90;;;;;;5082202;28;20460;-77
2021/06/02 08:52:11;;;;;;;6.43;2.73;;;21.20;77.80;;;;;;5081029;28;20484;-78
2021/06/02 08:54:40;;;;;;;1.93;1.60;;;21.20;76.40;;;;;;5083171;28;20489;-77
2021/06/02 08:57:10;;;;;;;1.87;1.50;;;21.30;74.40;;;;;;5085079;28;20854;-77
2021/06/02 08:59:38;;;;;;;2.13;1.30;;;21.40;74.60;;;;;;5078864;28;20463;-75
2021/06/02 09:02:06;;;;;;;1.60;1.50;;;21.40;76.80;;;;;;5086528;28;20517;-77
2021/06/02 09:04:34;;;;;;;1.47;1.37;;;21.40;77.90;;;;;;5088145;28;20483;-76
2021/06/02 09:07:04;;;;;;;1.47;1.23;;;21.50;72.70;;;;;;5082800;28;20442;-76
2021/06/02 09:09:33;;;;;;;2.93;1.53;;;21.50;76.90;;;;;;5082494;28;20945;-78
2021/06/02 09:12:06;;;;;;;1.73;1.27;;;21.50;73.10;;;;;;5103884;28;20647;-77
2021/06/02 09:14:37;;;;;;;2.17;1.40;;;21.50;74.80;;;;;;5079667;28;20581;-78
2021/06/02 09:17:07;;;;;;;1.67;1.57;;;21.60;81.00;;;;;;5076754;28;20958;-80
2021/06/02 09:19:40;;;;;;;1.67;1.50;;;21.60;81.80;;;;;;5085626;28;20460;-79
2021/06/02 09:22:09;;;;;;;1.30;1.20;;;21.70;84.50;;;;;;5081843;28;20452;-76
2021/06/02 09:24:51;;;;;;;2.50;1.57;;;21.70;80.00;;;;;;5086364;28;20839;-75
2021/06/02 09:27:41;;;;;;;1.90;1.63;;;21.80;78.40;;;;;;5081790;28;20480;-75
2021/06/02 09:30:11;;;;;;;2.40;1.60;;;21.80;85.30;;;;;;5084205;28;20457;-78
2021/06/02 09:32:44;;;;;;;1.60;1.50;;;21.90;83.30;;;;;;5112692;27;20553;-79
2021/06/02 09:35:13;;;;;;;1.97;1.77;;;21.90;82.40;;;;;;5089315;28;20526;-78
2021/06/02 09:37:54;;;;;;;1.50;1.40;;;21.90;82.20;;;;;;5087344;28;20487;-78
2021/06/02 09:40:25;;;;;;;1.50;1.30;;;21.90;81.80;;;;;;5084672;28;20459;-77
2021/06/02 09:42:55;;;;;;;1.57;1.47;;;22.00;87.30;;;;;;5087565;28;21280;-81
2021/06/02 09:45:23;;;;;;;1.40;1.30;;;22.00;88.90;;;;;;5094053;28;20621;-77
2021/06/02 09:47:53;;;;;;;1.60;1.50;;;22.10;87.00;;;;;;5083782;28;20511;-79
2021/06/02 09:50:27;;;;;;;1.73;1.40;;;22.10;92.20;;;;;;5084848;28;20552;-79
2021/06/02 09:52:57;;;;;;;1.50;1.40;;;22.20;93.30;;;;;;5085565;28;20820;-78
2021/06/02 09:55:28;;;;;;;1.90;1.80;;;22.20;94.60;;;;;;5092064;28;20476;-78
2021/06/02 09:58:10;;;;;;;1.80;1.50;;;22.20;95.10;;;;;;5084340;28;20481;-76
2021/06/02 10:00:41;;;;;;;1.97;1.50;;;22.20;95.30;;;;;;5125816;27;20457;-78
2021/06/02 10:03:12;;;;;;;1.77;1.67;;;22.30;93.20;;;;;;5087968;28;20519;-76
2021/06/02 10:05:41;;;;;;;3.00;1.97;;;22.30;94.50;;;;;;5086314;28;20989;-77
2021/06/02 10:08:11;;;;;;;2.80;1.70;;;22.40;92.90;;;;;;5082975;28;21604;-78
2021/06/02 10:10:39;;;;;;;3.70;1.77;;;22.50;95.20;;;;;;5090739;28;20479;-77
2021/06/02 10:13:09;;;;;;;1.23;1.23;;;22.50;94.70;;;;;;5089797;28;20968;-76
2021/06/02 10:15:39;;;;;;;3.60;2.00;;;22.60;96.40;;;;;;5092104;28;20465;-75
2021/06/02 10:18:25;;;;;;;2.00;1.90;;;22.60;94.60;;;;;;5086066;28;21004;-75
2021/06/02 10:21:01;;;;;;;1.80;1.30;;;22.60;95.20;;;;;;5105223;28;20457;-77
2021/06/02 10:23:30;;;;;;;2.70;1.70;;;22.70;96.90;;;;;;5086383;28;20460;-78
2021/06/02 10:26:01;;;;;;;1.70;1.60;;;22.70;96.20;;;;;;5084383;28;20486;-79
2021/06/02 10:28:31;;;;;;;1.70;1.60;;;22.70;94.30;;;;;;5090260;28;20438;-77
2021/06/02 10:31:00;;;;;;;2.40;1.70;;;22.70;91.40;;;;;;5088108;28;20442;-77
2021/06/02 10:33:29;;;;;;;2.20;1.80;;;22.70;90.80;;;;;;5084992;28;20467;-77
2021/06/02 10:35:58;;;;;;;2.03;1.80;;;22.80;91.40;;;;;;5088229;28;20911;-79
2021/06/02 10:38:28;;;;;;;1.77;1.67;;;22.80;96.80;;;;;;5083837;28;20496;-78
2021/06/02 10:40:58;;;;;;;1.97;1.67;;;22.80;95.50;;;;;;5081916;28;20897;-76
2021/06/02 10:43:31;;;;;;;2.33;1.90;;;22.80;91.00;;;;;;5085485;28;20478;-78
2021/06/02 10:46:02;;;;;;;2.53;1.50;;;22.90;91.30;;;;;;5084676;28;20719;-77
2021/06/02 10:48:39;;;;;;;1.57;1.20;;;22.90;92.70;;;;;;5085701;28;20495;-77
2021/06/02 10:51:06;;;;;;;4.43;1.87;;;22.90;90.10;;;;;;5086136;28;20452;-75
2021/06/02 10:53:34;;;;;;;1.53;1.43;;;23.00;90.00;;;;;;5094147;28;20449;-76
2021/06/02 10:56:02;;;;;;;2.10;2.00;;;23.10;94.00;;;;;;5077283;28;20506;-75
2021/06/02 10:58:32;;;;;;;1.67;1.10;;;23.00;93.30;;;;;;5080875;28;21916;-77
2021/06/02 11:01:11;;;;;;;2.60;1.47;;;23.00;94.20;;;;;;5107620;27;20515;-74
2021/06/02 11:03:42;;;;;;;1.53;1.40;;;23.10;92.50;;;;;;5119067;27;20461;-72
2021/06/02 11:06:33;;;;;;;1.93;1.70;;;23.10;97.20;;;;;;5090469;28;20457;-76
2021/06/02 11:09:16;;;;;;;1.47;1.37;;;23.20;95.00;;;;;;5074547;28;21059;-76
2021/06/02 11:11:46;;;;;;;2.00;1.47;;;23.20;92.60;;;;;;5091820;28;20981;-77
2021/06/02 11:14:28;;;;;;;2.50;1.43;;;23.30;94.10;;;;;;5086427;28;20466;-77
2021/06/02 11:17:02;;;;;;;3.08;1.90;;;23.40;92.80;;;;;;5115739;27;20456;-81
2021/06/02 11:19:36;;;;;;;2.33;1.63;;;23.40;96.40;;;;;;5086091;28;20563;-76
2021/06/02 11:22:06;;;;;;;1.50;1.40;;;23.30;99.00;;;;;;5089358;28;20871;-79
2021/06/02 11:24:41;;;;;;;2.30;1.23;;;23.30;99.40;;;;;;5088776;28;20449;-83
2021/06/02 11:27:29;;;;;;;1.97;1.30;;;23.40;93.60;;;;;;5084716;28;20207;-78
2021/06/02 11:30:20;;;;;;;1.40;1.30;;;23.60;95.20;;;;;;5080657;28;20446;-81
2021/06/02 11:33:11;;;;;;;1.50;1.40;;;23.70;96.00;;;;;;5082717;28;20461;-77
2021/06/02 11:35:59;;;;;;;1.30;1.20;;;23.80;95.30;;;;;;5088844;28;20527;-82
2021/06/02 11:38:28;;;;;;;1.60;1.50;;;23.80;94.60;;;;;;5084512;28;20526;-80
2021/06/02 11:40:57;;;;;;;2.10;1.43;;;23.90;93.60;;;;;;5088329;28;20446;-77
2021/06/02 11:43:25;;;;;;;2.17;1.27;;;24.00;95.00;;;;;;5089237;28;20794;-83
2021/06/02 11:45:59;;;;;;;1.50;1.40;;;24.00;95.90;;;;;;5089656;28;20465;-81
2021/06/02 11:48:38;;;;;;;1.40;1.30;;;24.10;95.70;;;;;;5089455;28;20446;-77
2021/06/02 11:51:08;;;;;;;1.40;1.03;;;24.20;95.80;;;;;;5088713;28;20461;-80
2021/06/02 11:53:48;;;;;;;1.90;1.20;;;24.30;95.20;;;;;;5088032;28;20521;-78
2021/06/02 11:56:19;;;;;;;1.63;1.53;;;24.30;94.20;;;;;;5090485;28;20442;-78
2021/06/02 11:58:50;;;;;;;1.50;1.40;;;24.30;94.40;;;;;;5089789;28;20469;-78
2021/06/02 12:01:24;;;;;;;1.60;1.50;;;24.40;94.40;;;;;;5090288;28;20583;-80
2021/06/02 12:03:57;;;;;;;2.23;1.30;;;24.30;93.10;;;;;;5089250;28;20593;-82
2021/06/02 12:06:30;;;;;;;1.67;1.57;;;24.30;92.30;;;;;;5090005;28;20458;-81
2021/06/02 12:08:57;;;;;;;1.73;1.50;;;24.30;94.30;;;;;;5082851;28;20457;-80
2021/06/02 12:11:25;;;;;;;1.43;1.23;;;24.40;95.10;;;;;;5072256;28;20493;-78
2021/06/02 12:13:53;;;;;;;1.80;1.33;;;24.40;94.90;;;;;;5086176;28;20478;-79
2021/06/02 12:16:26;;;;;;;1.93;1.47;;;24.50;93.70;;;;;;5090011;28;20515;-82
2021/06/02 12:19:00;;;;;;;1.60;1.20;;;24.50;93.60;;;;;;5086647;28;21065;-78
2021/06/02 12:21:31;;;;;;;3.33;1.67;;;24.50;93.30;;;;;;5090203;28;20450;-80
2021/06/02 12:24:01;;;;;;;1.40;1.30;;;24.60;93.00;;;;;;5087908;28;21038;-78
2021/06/02 12:26:31;;;;;;;1.30;1.20;;;24.60;91.50;;;;;;5081464;28;20508;-78
2021/06/02 12:29:01;;;;;;;2.07;1.70;;;24.60;92.90;;;;;;5076265;28;20484;-79
2021/06/02 12:31:39;;;;;;;2.17;1.50;;;24.70;94.60;;;;;;5089663;28;20483;-81
2021/06/02 12:34:09;;;;;;;1.50;1.40;;;24.70;95.30;;;;;;5088531;28;20518;-80
2021/06/02 12:36:41;;;;;;;1.77;1.50;;;24.80;96.20;;;;;;5121869;27;20507;-79
2021/06/02 12:39:11;;;;;;;1.63;1.40;;;24.80;99.90;;;;;;5086121;28;20531;-79
2021/06/02 12:41:41;;;;;;;4.50;2.83;;;24.80;97.00;;;;;;5086919;28;20454;-79
2021/06/02 12:44:10;;;;;;;4.13;2.70;;;24.80;96.90;;;;;;5089085;28;20465;-80
2021/06/02 12:46:39;;;;;;;4.13;1.70;;;24.90;98.20;;;;;;5089073;28;20438;-79
2021/06/02 12:49:08;;;;;;;1.47;1.30;;;25.00;97.10;;;;;;5087936;28;20441;-80
2021/06/02 12:51:38;;;;;;;2.20;1.37;;;25.00;96.00;;;;;;5081849;28;20533;-77
2021/06/02 12:54:14;;;;;;;2.77;1.67;;;25.00;96.90;;;;;;5086948;28;20462;-78
2021/06/02 12:56:42;;;;;;;1.73;1.40;;;25.10;96.00;;;;;;5088639;28;20868;-79
2021/06/02 12:59:09;;;;;;;1.93;1.60;;;25.10;97.10;;;;;;5087457;28;21030;-79
2021/06/02 13:01:39;;;;;;;3.07;1.60;;;25.20;98.30;;;;;;5087740;28;20507;-80
2021/06/02 13:04:07;;;;;;;1.40;1.30;;;25.20;98.50;;;;;;5088277;28;20473;-79
2021/06/02 13:06:35;;;;;;;1.40;1.20;;;25.20;98.50;;;;;;5087702;28;20461;-79
2021/06/02 13:09:09;;;;;;;1.50;1.40;;;25.20;97.40;;;;;;5087254;28;20506;-78
2021/06/02 13:11:37;;;;;;;2.63;1.70;;;25.20;97.60;;;;;;5086141;28;20445;-78
2021/06/02 13:14:06;;;;;;;5.53;1.40;;;25.20;97.70;;;;;;5087770;28;20933;-79
2021/06/02 13:16:33;;;;;;;4.50;1.70;;;25.30;97.20;;;;;;5088152;28;20738;-78
2021/06/02 13:19:04;;;;;;;1.50;1.40;;;25.30;97.30;;;;;;5088117;28;20487;-80
2021/06/02 13:21:34;;;;;;;2.80;2.20;;;25.30;97.50;;;;;;5087313;28;20434;-82
2021/06/02 13:24:13;;;;;;;2.83;1.80;;;25.30;98.20;;;;;;5086680;28;20465;-80
2021/06/02 13:26:44;;;;;;;2.70;1.57;;;25.30;95.50;;;;;;5086956;28;20450;-82
2021/06/02 13:29:12;;;;;;;3.00;1.30;;;25.30;94.10;;;;;;5087878;28;20491;-77
2021/06/02 13:31:42;;;;;;;2.20;1.50;;;25.20;93.80;;;;;;5086925;28;20465;-80
2021/06/02 13:34:27;;;;;;;2.90;1.70;;;25.20;93.10;;;;;;5088218;28;20519;-78
2021/06/02 13:36:55;;;;;;;1.40;1.30;;;25.10;94.30;;;;;;5087039;28;20465;-80